Startpagina
METAR-TAF:

METAR-TAF

Vliegvelden :

Aeropuerto Internacional Malvinas Argentinas

Ushuaia, Argentinië

breedte: 54-48S, lengte: 068-19W, hoogte: 16 m

Actueel weer

Dit bericht is 15 minuten geleden gemaakt, om 02:00 UTC
Wind 3 kt uit het noordnoordwesten
Temperatuur 0°C
Vochtigheid 69%
Druk 1032 hPa
Zicht 10 km of meer
geen wolken onder 1500 m en geen cumulonimbus

METAR: SAWH 190200Z 34003KT CAVOK M00/M05 Q1032

Tijdstip: 23:15 (02:15 UTC)

Verwachting

Dit bericht is 3 uur en het 15 minuten geleden gemaakt, om 23:00 UTC
Verwachting geldig van 19 om 00 UTC tot 19 om 24 UTC
Wind 3 kt uit variabele richting
Zicht 10 km of meer
geen wolken onder 1500 m en geen cumulonimbus
Wijzigt naar
van 19 om 07 UTC tot 19 om 09 UTC
Wind 10 kt uit het noordnoordoosten
Zicht 10 km of meer
Verspreide wolken op 3000 ft

TAF: SAWH 182300Z 1900/1924 VRB03KT CAVOK TX01/1918Z TNM04/1910Z BECMG 1907/1909 02010KT 9999 SCT030

Waarnemingen en weersverwachtingen van meer dan 4000 vliegvelden (METAR en TAF).

De beschikbare stations zijn de gele en rode punten op de kaart.

Ga met uw muis naar het station om de naam te zien.

Klik dan om waarnemingen en weersverwachtingen te zien.

kaart wijzigen: klik op de groene knoppen met een zwart kruis om in te zoomen, op de groene knop met een streepje om uit te zoomen of op de groene pijlen voor aangrenzende kaarten.


METAR-TAF: